createdAt,value
2023-02-04T00:00:40.291Z,10.70
2023-02-04T00:03:08.531Z,6.90
2023-02-04T00:05:39.265Z,4.80
2023-02-04T00:08:07.664Z,6.55
2023-02-04T00:10:36.373Z,4.80
2023-02-04T00:13:05.886Z,10.52
2023-02-04T00:15:34.027Z,6.22
2023-02-04T00:18:02.219Z,9.98
2023-02-04T00:20:30.856Z,9.43
2023-02-04T00:22:59.303Z,9.25
2023-02-04T00:25:27.557Z,9.93
2023-02-04T00:27:55.790Z,10.75
2023-02-04T00:30:25.383Z,7.07
2023-02-04T00:32:55.055Z,6.43
2023-02-04T00:35:25.864Z,8.60
2023-02-04T00:37:57.550Z,6.18
2023-02-04T00:40:27.272Z,8.27
2023-02-04T00:42:57.941Z,9.90
2023-02-04T00:45:27.509Z,9.65
2023-02-04T00:47:58.290Z,9.52
2023-02-04T00:50:29.758Z,6.85
2023-02-04T00:53:02.036Z,8.43
2023-02-04T00:55:31.305Z,7.30
2023-02-04T00:58:00.200Z,7.53
2023-02-04T01:00:30.143Z,7.30
2023-02-04T01:03:00.771Z,9.00
2023-02-04T01:05:28.892Z,9.80
2023-02-04T01:07:57.099Z,7.70
2023-02-04T01:10:27.036Z,6.45
2023-02-04T01:12:55.363Z,9.20
2023-02-04T01:15:23.830Z,8.90
2023-02-04T01:17:53.438Z,6.22
2023-02-04T01:20:21.763Z,10.02
2023-02-04T01:22:50.344Z,7.97
2023-02-04T01:25:18.717Z,7.88
2023-02-04T01:27:47.144Z,9.82
2023-02-04T01:30:16.754Z,6.53
2023-02-04T01:32:44.994Z,7.10
2023-02-04T01:35:14.537Z,7.60
2023-02-04T01:37:42.757Z,7.95
2023-02-04T01:40:12.640Z,6.43
2023-02-04T01:42:41.295Z,7.15
2023-02-04T01:45:10.614Z,9.88
2023-02-04T01:47:39.131Z,7.72
2023-02-04T01:50:08.668Z,8.27
2023-02-04T01:52:40.878Z,9.68
2023-02-04T01:55:15.231Z,6.53
2023-02-04T01:57:45.981Z,5.93
2023-02-04T02:00:18.801Z,4.13
2023-02-04T02:02:51.681Z,7.93
2023-02-04T02:05:25.711Z,3.90
2023-02-04T02:07:57.731Z,7.32
2023-02-04T02:10:26.514Z,5.82
2023-02-04T02:12:55.796Z,7.03
2023-02-04T02:15:24.968Z,5.32
2023-02-04T02:17:53.773Z,6.85
2023-02-04T02:20:23.542Z,6.47
2023-02-04T02:23:01.565Z,5.57
2023-02-04T02:25:31.294Z,6.28
2023-02-04T02:28:00.253Z,8.80
2023-02-04T02:30:30.292Z,7.43
2023-02-04T02:33:01.132Z,5.47
2023-02-04T02:35:29.392Z,5.97
2023-02-04T02:37:58.755Z,5.00
2023-02-04T02:40:27.300Z,5.28
2023-02-04T02:42:59.390Z,7.45
2023-02-04T02:45:30.145Z,4.75
2023-02-04T02:48:00.868Z,8.00
2023-02-04T02:50:31.803Z,4.45
2023-02-04T02:53:01.999Z,7.75
2023-02-04T02:55:30.456Z,6.57
2023-02-04T02:58:00.845Z,6.25
2023-02-04T03:00:31.202Z,5.93
2023-02-04T03:03:03.595Z,5.88
2023-02-04T03:05:37.075Z,4.40
2023-02-04T03:08:06.529Z,3.35
2023-02-04T03:10:36.158Z,2.78
2023-02-04T03:13:06.341Z,5.43
2023-02-04T03:15:37.849Z,4.65
2023-02-04T03:18:06.814Z,3.47
2023-02-04T03:20:35.826Z,4.13
2023-02-04T03:23:04.017Z,8.32
2023-02-04T03:25:32.469Z,6.35
2023-02-04T03:28:01.134Z,4.80
2023-02-04T03:30:31.391Z,4.63
2023-02-04T03:33:00.061Z,5.30
2023-02-04T03:35:30.586Z,5.85
2023-02-04T03:37:58.736Z,3.85
2023-02-04T03:40:26.900Z,5.07
2023-02-04T03:42:55.347Z,4.15
2023-02-04T03:45:27.089Z,4.72
2023-02-04T03:47:58.078Z,3.83
2023-02-04T03:50:26.251Z,4.05
2023-02-04T03:52:54.483Z,4.47
2023-02-04T03:55:22.626Z,4.38
2023-02-04T03:57:50.842Z,4.30
2023-02-04T04:00:19.263Z,3.65
2023-02-04T04:02:47.745Z,4.53
2023-02-04T04:05:17.681Z,3.92
2023-02-04T04:07:46.176Z,4.28
2023-02-04T04:10:14.492Z,5.30
2023-02-04T04:12:42.651Z,4.55
2023-02-04T04:15:11.254Z,3.97
2023-02-04T04:17:39.615Z,6.50
2023-02-04T04:20:08.303Z,3.33
2023-02-04T04:22:37.854Z,4.72
2023-02-04T04:25:06.522Z,3.92
2023-02-04T04:27:34.769Z,4.63
2023-02-04T04:30:03.185Z,3.45
2023-02-04T04:32:31.402Z,3.53
2023-02-04T04:34:59.619Z,4.90
2023-02-04T04:37:27.784Z,5.70
2023-02-04T04:39:57.298Z,4.90
2023-02-04T04:42:25.494Z,4.60
2023-02-04T04:44:53.682Z,5.03
2023-02-04T04:47:21.874Z,3.63
2023-02-04T04:49:50.227Z,5.45
2023-02-04T04:52:18.378Z,4.68
2023-02-04T04:54:46.774Z,4.22
2023-02-04T04:57:16.295Z,3.80
2023-02-04T04:59:44.463Z,4.00
2023-02-04T05:02:12.619Z,4.40
2023-02-04T05:04:40.872Z,2.60
2023-02-04T05:07:09.109Z,5.70
2023-02-04T05:09:37.369Z,6.60
2023-02-04T05:12:06.062Z,5.18
2023-02-04T05:14:35.585Z,3.72
2023-02-04T05:17:03.821Z,5.65
2023-02-04T05:19:32.093Z,3.88
2023-02-04T05:22:01.690Z,4.75
2023-02-04T05:24:30.080Z,4.25
2023-02-04T05:26:58.255Z,5.25
2023-02-04T05:29:26.431Z,5.07
2023-02-04T05:31:56.126Z,2.95
2023-02-04T05:34:24.334Z,4.38
2023-02-04T05:36:52.506Z,4.95
2023-02-04T05:39:20.691Z,3.72
2023-02-04T05:41:48.886Z,3.55
2023-02-04T05:44:17.017Z,5.78
2023-02-04T05:46:45.232Z,3.30
2023-02-04T05:49:17.258Z,5.13
2023-02-04T05:51:45.436Z,2.83
2023-02-04T05:54:19.374Z,4.53
2023-02-04T05:56:47.989Z,3.38
2023-02-04T05:59:16.355Z,5.40
2023-02-04T06:01:44.579Z,3.30
2023-02-04T06:04:12.798Z,3.50
2023-02-04T06:06:42.457Z,4.70
2023-02-04T06:09:10.683Z,6.63
2023-02-04T06:11:39.181Z,5.80
2023-02-04T06:14:07.420Z,3.55
2023-02-04T06:16:35.686Z,6.47
2023-02-04T06:19:06.704Z,4.60
2023-02-04T06:21:34.932Z,5.50
2023-02-04T06:24:05.489Z,5.97
2023-02-04T06:26:33.806Z,4.90
2023-02-04T06:29:04.491Z,4.97
2023-02-04T06:31:32.887Z,5.70
2023-02-04T06:34:01.234Z,3.50
2023-02-04T06:36:29.395Z,6.25
2023-02-04T06:39:00.043Z,3.80
2023-02-04T06:41:29.561Z,4.47
2023-02-04T06:43:57.766Z,4.30
2023-02-04T06:46:26.000Z,4.75
2023-02-04T06:48:57.305Z,3.90
2023-02-04T06:51:26.119Z,4.35
2023-02-04T06:53:54.255Z,5.30
2023-02-04T06:56:24.746Z,5.55
2023-02-04T06:58:54.295Z,4.78
2023-02-04T07:01:22.625Z,4.82
2023-02-04T07:03:50.835Z,5.35
2023-02-04T07:06:19.028Z,9.43
2023-02-04T07:08:47.546Z,5.75
2023-02-04T07:11:18.135Z,4.90
2023-02-04T07:13:46.434Z,6.70
2023-02-04T07:16:16.028Z,3.58
2023-02-04T07:18:44.309Z,5.25
2023-02-04T07:21:12.569Z,4.95
2023-02-04T07:23:40.715Z,5.45
2023-02-04T07:26:08.862Z,4.88
2023-02-04T07:28:38.648Z,3.15
2023-02-04T07:31:07.129Z,2.53
2023-02-04T07:33:36.781Z,5.30
2023-02-04T07:36:05.346Z,4.57
2023-02-04T07:38:33.538Z,4.25
2023-02-04T07:41:01.716Z,6.40
2023-02-04T07:43:30.021Z,3.85
2023-02-04T07:45:58.288Z,2.75
2023-02-04T07:48:26.458Z,4.20
2023-02-04T07:50:55.978Z,3.70
2023-02-04T07:53:24.109Z,2.97
2023-02-04T07:55:52.257Z,3.55
2023-02-04T07:58:20.392Z,2.85
2023-02-04T08:00:48.604Z,2.50
2023-02-04T08:03:16.946Z,2.78
2023-02-04T08:05:47.705Z,3.15
2023-02-04T08:08:17.276Z,2.80
2023-02-04T08:10:45.476Z,3.95
2023-02-04T08:13:13.790Z,2.95
2023-02-04T08:15:42.101Z,3.50
2023-02-04T08:18:10.340Z,2.65
2023-02-04T08:20:38.573Z,4.35
2023-02-04T08:23:06.837Z,3.38
2023-02-04T08:25:36.457Z,4.20
2023-02-04T08:28:04.947Z,4.50
2023-02-04T08:30:33.436Z,3.80
2023-02-04T08:33:01.856Z,4.47
2023-02-04T08:35:30.023Z,3.22
2023-02-04T08:37:58.211Z,3.28
2023-02-04T08:40:26.571Z,2.33
2023-02-04T08:42:56.193Z,3.92
2023-02-04T08:45:24.344Z,3.88
2023-02-04T08:47:52.533Z,2.45
2023-02-04T08:50:20.718Z,3.40
2023-02-04T08:52:51.417Z,2.63
2023-02-04T08:55:19.578Z,2.63
2023-02-04T08:57:47.762Z,1.95
2023-02-04T09:00:18.737Z,3.03
2023-02-04T09:02:46.984Z,2.67
2023-02-04T09:05:15.180Z,2.00
2023-02-04T09:07:46.193Z,2.33
2023-02-04T09:10:14.441Z,2.05
2023-02-04T09:12:45.811Z,1.93
2023-02-04T09:15:14.303Z,1.55
2023-02-04T09:17:44.563Z,2.73
2023-02-04T09:20:13.563Z,2.60
2023-02-04T09:22:43.989Z,1.70
2023-02-04T09:25:12.394Z,2.10
2023-02-04T09:27:40.653Z,2.80
2023-02-04T09:30:09.912Z,2.00
2023-02-04T09:32:38.106Z,2.30
2023-02-04T09:35:08.054Z,2.93
2023-02-04T09:37:36.255Z,2.33
2023-02-04T09:40:04.689Z,1.70
2023-02-04T09:42:32.940Z,2.57
2023-02-04T09:45:03.201Z,3.40
2023-02-04T09:47:32.158Z,3.17
2023-02-04T09:50:00.433Z,2.17
2023-02-04T09:52:30.257Z,2.57
2023-02-04T09:54:58.476Z,2.17
2023-02-04T09:57:26.708Z,1.90
2023-02-04T09:59:55.239Z,2.87
2023-02-04T10:02:26.022Z,2.47
2023-02-04T10:04:58.611Z,3.10
2023-02-04T10:07:27.875Z,3.70
2023-02-04T10:09:57.624Z,2.60
2023-02-04T10:12:27.296Z,2.07
2023-02-04T10:14:55.586Z,2.93
2023-02-04T10:17:24.274Z,3.40
2023-02-04T10:19:53.034Z,2.43
2023-02-04T10:22:23.777Z,3.60
2023-02-04T10:24:52.106Z,4.50
2023-02-04T10:27:21.681Z,3.57
2023-02-04T10:29:57.623Z,3.63
2023-02-04T10:32:33.824Z,2.17
2023-02-04T10:35:03.707Z,3.13
2023-02-04T10:37:32.247Z,5.50
2023-02-04T10:40:02.917Z,3.70
2023-02-04T10:42:33.156Z,2.97
2023-02-04T10:45:01.509Z,2.30
2023-02-04T10:47:31.644Z,3.30
2023-02-04T10:50:04.760Z,2.50
2023-02-04T10:52:38.429Z,2.57
2023-02-04T10:55:12.401Z,2.03
2023-02-04T10:57:43.372Z,4.07
2023-02-04T11:00:19.343Z,3.57
2023-02-04T11:02:53.749Z,3.23
2023-02-04T11:05:23.516Z,2.20
2023-02-04T11:07:52.377Z,2.67
2023-02-04T11:10:24.418Z,2.33
2023-02-04T11:13:05.027Z,4.45
2023-02-04T11:15:42.574Z,2.85
2023-02-04T11:18:13.273Z,1.80
2023-02-04T11:20:42.077Z,1.70
2023-02-04T11:23:18.923Z,2.78
2023-02-04T11:25:48.760Z,3.05
2023-02-04T11:28:27.114Z,1.98
2023-02-04T11:31:01.574Z,3.20
2023-02-04T11:33:40.771Z,2.40
2023-02-04T11:36:11.969Z,3.35
2023-02-04T11:38:40.698Z,3.67
2023-02-04T11:41:17.631Z,2.22
2023-02-04T11:43:48.190Z,5.43
2023-02-04T11:46:19.152Z,3.67
2023-02-04T11:48:47.356Z,3.38
2023-02-04T11:51:18.332Z,2.95
2023-02-04T11:53:52.708Z,2.25
2023-02-04T11:56:22.524Z,4.28
2023-02-04T11:58:52.406Z,2.90
2023-02-04T12:01:21.593Z,3.45
2023-02-04T12:03:52.215Z,2.47
2023-02-04T12:06:25.165Z,3.13
2023-02-04T12:08:53.325Z,3.58
2023-02-04T12:11:30.524Z,4.45
2023-02-04T12:14:09.722Z,3.60
2023-02-04T12:16:47.383Z,2.67
2023-02-04T12:19:15.799Z,4.45
2023-02-04T12:21:44.392Z,2.75
2023-02-04T12:24:12.675Z,4.95
2023-02-04T12:26:40.965Z,2.08
2023-02-04T12:29:10.570Z,3.47
2023-02-04T12:31:38.850Z,3.50
2023-02-04T12:34:07.084Z,2.08
2023-02-04T12:36:35.240Z,3.00
2023-02-04T12:39:03.927Z,4.40
2023-02-04T12:41:32.124Z,2.58
2023-02-04T12:44:01.419Z,2.67
2023-02-04T12:46:31.121Z,2.92
2023-02-04T12:48:59.308Z,2.05
2023-02-04T12:51:27.520Z,3.58
2023-02-04T12:53:55.703Z,2.40
2023-02-04T12:56:24.305Z,3.45
2023-02-04T12:58:52.485Z,4.10
2023-02-04T13:01:23.191Z,2.75
2023-02-04T13:03:52.816Z,2.47
2023-02-04T13:06:20.982Z,2.75
2023-02-04T13:08:49.174Z,2.85
2023-02-04T13:11:17.332Z,4.45
2023-02-04T13:13:45.486Z,2.55
2023-02-04T13:16:13.815Z,2.25
2023-02-04T13:18:42.044Z,2.00
2023-02-04T13:21:11.564Z,3.42
2023-02-04T13:23:39.808Z,2.90
2023-02-04T13:26:08.966Z,2.50
2023-02-04T13:28:37.497Z,2.30
2023-02-04T13:31:06.258Z,3.38
2023-02-04T13:33:34.625Z,3.08
2023-02-04T13:36:02.819Z,2.05
2023-02-04T13:38:32.377Z,1.95
2023-02-04T13:41:00.560Z,2.10
2023-02-04T13:43:28.805Z,1.85
2023-02-04T13:45:57.924Z,1.70
2023-02-04T13:48:26.267Z,2.00
2023-02-04T13:50:54.485Z,1.70
2023-02-04T13:53:22.802Z,2.00
2023-02-04T13:55:52.415Z,2.70
2023-02-04T13:58:20.578Z,1.70
2023-02-04T14:00:48.889Z,2.08
2023-02-04T14:03:17.024Z,2.58
2023-02-04T14:05:45.230Z,2.13
2023-02-04T14:08:13.427Z,2.63
2023-02-04T14:10:41.645Z,2.10
2023-02-04T14:13:11.333Z,1.90
2023-02-04T14:15:41.589Z,2.50
2023-02-04T14:18:09.865Z,2.03
2023-02-04T14:20:39.087Z,1.85
2023-02-04T14:23:07.610Z,2.40
2023-02-04T14:25:36.138Z,2.50
2023-02-04T14:28:04.453Z,2.05
2023-02-04T14:30:35.280Z,2.55
2023-02-04T14:33:03.763Z,2.40
2023-02-04T14:35:32.677Z,1.73
2023-02-04T14:38:01.023Z,2.15
2023-02-04T14:40:29.245Z,2.83
2023-02-04T14:42:57.481Z,2.38
2023-02-04T14:45:25.721Z,2.08
2023-02-04T14:48:00.467Z,2.40
2023-02-04T14:50:31.366Z,2.67
2023-02-04T14:52:59.983Z,2.03
2023-02-04T14:55:28.758Z,1.85
2023-02-04T14:57:56.947Z,1.88
2023-02-04T15:00:25.465Z,1.70
2023-02-04T15:02:55.019Z,2.53
2023-02-04T15:05:23.545Z,2.38
2023-02-04T15:07:51.810Z,2.55
2023-02-04T15:10:22.897Z,2.10
2023-02-04T15:12:55.286Z,2.67
2023-02-04T15:15:23.716Z,3.80
2023-02-04T15:17:51.982Z,2.15
2023-02-04T15:20:21.690Z,2.50
2023-02-04T15:22:51.868Z,2.10
2023-02-04T15:25:20.229Z,2.00
2023-02-04T15:27:48.597Z,2.28
2023-02-04T15:30:17.536Z,2.15
2023-02-04T15:32:46.161Z,2.30
2023-02-04T15:35:14.651Z,2.17
2023-02-04T15:37:44.203Z,2.55
2023-02-04T15:40:13.402Z,2.58
2023-02-04T15:42:41.877Z,2.08
2023-02-04T15:45:10.677Z,2.00
2023-02-04T15:47:38.855Z,2.40
2023-02-04T15:50:09.130Z,2.63
2023-02-04T15:52:37.566Z,2.35
2023-02-04T15:55:08.021Z,2.15
2023-02-04T15:57:36.694Z,1.85
2023-02-04T16:00:06.277Z,2.13
2023-02-04T16:02:34.730Z,2.70
2023-02-04T16:05:03.068Z,2.60
2023-02-04T16:07:31.397Z,3.00
2023-02-04T16:09:59.655Z,4.15
2023-02-04T16:12:29.691Z,3.38
2023-02-04T16:14:57.860Z,2.70
2023-02-04T16:17:26.034Z,2.80
2023-02-04T16:19:54.197Z,3.05
2023-02-04T16:22:22.397Z,4.88
2023-02-04T16:24:52.833Z,2.90
2023-02-04T16:27:21.258Z,2.20
2023-02-04T16:29:50.798Z,3.28
2023-02-04T16:32:19.056Z,3.85
2023-02-04T16:34:47.263Z,3.17
2023-02-04T16:37:15.946Z,4.35
2023-02-04T16:39:45.333Z,3.70
2023-02-04T16:42:13.901Z,2.45
2023-02-04T16:44:42.268Z,4.30
2023-02-04T16:47:12.496Z,3.42
2023-02-04T16:49:40.696Z,5.10
2023-02-04T16:52:08.953Z,4.47
2023-02-04T16:54:37.357Z,3.28
2023-02-04T16:57:08.853Z,3.67
2023-02-04T16:59:38.309Z,7.03
2023-02-04T17:02:06.971Z,6.90
2023-02-04T17:04:36.647Z,4.35
2023-02-04T17:07:05.670Z,3.92
2023-02-04T17:09:33.939Z,5.35
2023-02-04T17:12:02.348Z,4.07
2023-02-04T17:14:32.770Z,4.47
2023-02-04T17:17:00.960Z,4.63
2023-02-04T17:19:29.306Z,4.93
2023-02-04T17:22:01.238Z,4.75
2023-02-04T17:24:29.408Z,3.30
2023-02-04T17:26:57.720Z,5.57
2023-02-04T17:29:25.933Z,4.75
2023-02-04T17:31:54.273Z,7.82
2023-02-04T17:34:22.438Z,4.07
2023-02-04T17:36:50.719Z,3.53
2023-02-04T17:39:20.374Z,3.88
2023-02-04T17:41:48.578Z,4.22
2023-02-04T17:44:20.147Z,5.30
2023-02-04T17:46:48.413Z,3.75
2023-02-04T17:49:16.587Z,3.45
2023-02-04T17:51:47.050Z,3.90
2023-02-04T17:54:15.693Z,2.90
2023-02-04T17:56:45.410Z,5.20
2023-02-04T17:59:14.578Z,3.55
2023-02-04T18:01:44.630Z,6.03
2023-02-04T18:04:13.890Z,4.97
2023-02-04T18:06:42.364Z,4.00
2023-02-04T18:09:16.256Z,5.28
2023-02-04T18:11:46.640Z,5.03
2023-02-04T18:14:17.984Z,4.40
2023-02-04T18:16:46.694Z,5.53
2023-02-04T18:19:19.336Z,3.50
2023-02-04T18:21:48.251Z,5.55
2023-02-04T18:24:19.004Z,4.35
2023-02-04T18:26:50.362Z,3.88
2023-02-04T18:29:36.361Z,4.95
2023-02-04T18:32:11.514Z,3.88
2023-02-04T18:34:41.548Z,9.32
2023-02-04T18:37:28.039Z,5.43
2023-02-04T18:39:58.973Z,5.30
2023-02-04T18:42:29.037Z,8.68
2023-02-04T18:44:57.210Z,5.45
2023-02-04T18:47:33.696Z,3.65
2023-02-04T18:50:03.168Z,5.10
2023-02-04T18:52:38.389Z,4.78
2023-02-04T18:55:21.854Z,6.28
2023-02-04T18:57:51.582Z,6.28
2023-02-04T19:00:34.526Z,5.13
2023-02-04T19:03:20.983Z,5.30
2023-02-04T19:05:50.293Z,4.00
2023-02-04T19:08:24.335Z,4.90
2023-02-04T19:10:56.350Z,6.82
2023-02-04T19:13:27.918Z,5.10
2023-02-04T19:16:03.640Z,4.53
2023-02-04T19:18:39.648Z,6.43
2023-02-04T19:21:32.360Z,7.97
2023-02-04T19:24:09.740Z,3.47
2023-02-04T19:26:42.985Z,6.20
2023-02-04T19:29:41.338Z,4.63
2023-02-04T19:32:27.464Z,3.88
2023-02-04T19:34:59.247Z,7.00
2023-02-04T19:37:29.867Z,5.00
2023-02-04T19:39:58.050Z,4.95
2023-02-04T19:42:30.618Z,11.13
2023-02-04T19:45:02.520Z,8.95
2023-02-04T19:47:37.924Z,6.55
2023-02-04T19:50:28.861Z,5.28
2023-02-04T19:53:02.554Z,4.47
2023-02-04T19:55:34.346Z,5.10
2023-02-04T19:58:12.040Z,5.20
2023-02-04T20:01:00.684Z,6.30
2023-02-04T20:03:36.997Z,8.77
2023-02-04T20:06:30.762Z,5.03
2023-02-04T20:09:01.169Z,4.05
2023-02-04T20:11:41.930Z,3.85
2023-02-04T20:14:26.641Z,5.47
2023-02-04T20:16:58.514Z,4.75
2023-02-04T20:19:35.316Z,5.72
2023-02-04T20:22:33.967Z,5.80
2023-02-04T20:25:41.249Z,4.57
2023-02-04T20:28:39.918Z,5.78
2023-02-04T20:31:24.906Z,4.90
2023-02-04T20:33:56.210Z,4.40
2023-02-04T20:36:40.906Z,7.30
2023-02-04T20:39:36.074Z,5.32
2023-02-04T20:42:30.523Z,4.68
2023-02-04T20:45:27.863Z,3.85
2023-02-04T20:47:59.853Z,6.63
2023-02-04T20:50:41.213Z,6.43
2023-02-04T20:53:20.327Z,4.10
2023-02-04T20:55:51.395Z,7.85
2023-02-04T20:58:21.939Z,6.20
2023-02-04T21:00:53.943Z,10.38
2023-02-04T21:03:28.670Z,4.95
2023-02-04T21:06:00.062Z,6.05
2023-02-04T21:08:42.416Z,5.57
2023-02-04T21:11:10.701Z,4.95
2023-02-04T21:13:40.785Z,5.10
2023-02-04T21:16:09.779Z,5.13
2023-02-04T21:18:39.034Z,7.47
2023-02-04T21:21:10.261Z,4.72
2023-02-04T21:23:39.068Z,5.63
2023-02-04T21:26:07.786Z,7.68
2023-02-04T21:28:36.024Z,7.78
2023-02-04T21:31:04.324Z,5.50
2023-02-04T21:33:32.651Z,4.63
2023-02-04T21:36:00.826Z,3.90
2023-02-04T21:38:30.333Z,7.70
2023-02-04T21:40:58.605Z,6.20
2023-02-04T21:43:26.825Z,5.32
2023-02-04T21:45:54.988Z,8.70
2023-02-04T21:48:25.734Z,7.22
2023-02-04T21:50:54.025Z,4.45
2023-02-04T21:53:22.278Z,4.57
2023-02-04T21:55:51.862Z,4.28
2023-02-04T21:58:22.319Z,6.82
2023-02-04T22:00:50.790Z,6.45
2023-02-04T22:03:19.043Z,7.13
2023-02-04T22:05:47.542Z,5.68
2023-02-04T22:08:18.244Z,6.53
2023-02-04T22:10:46.448Z,7.60
2023-02-04T22:13:33.534Z,4.80
2023-02-04T22:16:01.786Z,4.25
2023-02-04T22:18:29.962Z,5.82
2023-02-04T22:20:58.128Z,5.28
2023-02-04T22:23:26.312Z,7.35
2023-02-04T22:25:54.491Z,6.82
2023-02-04T22:28:24.083Z,5.45
2023-02-04T22:30:54.157Z,6.13
2023-02-04T22:33:22.523Z,4.82
2023-02-04T22:35:50.768Z,4.85
2023-02-04T22:38:20.165Z,9.18
2023-02-04T22:40:48.974Z,6.00
2023-02-04T22:43:19.393Z,4.18
2023-02-04T22:45:48.903Z,4.18
2023-02-04T22:48:17.183Z,7.82
2023-02-04T22:50:47.849Z,5.75
2023-02-04T22:53:16.092Z,5.78
2023-02-04T22:55:46.774Z,5.18
2023-02-04T22:58:17.447Z,4.88
2023-02-04T23:00:45.677Z,5.25
2023-02-04T23:03:15.302Z,6.22
2023-02-04T23:05:45.212Z,7.18
2023-02-04T23:08:13.582Z,5.88
2023-02-04T23:10:41.925Z,5.35
2023-02-04T23:13:10.688Z,4.95
2023-02-04T23:15:39.317Z,5.10
2023-02-04T23:18:07.491Z,6.25
2023-02-04T23:20:40.815Z,4.65
2023-02-04T23:23:10.602Z,4.63
2023-02-04T23:25:41.776Z,6.90
2023-02-04T23:28:09.970Z,4.95
2023-02-04T23:30:38.141Z,4.93
2023-02-04T23:33:06.539Z,3.58
2023-02-04T23:35:35.380Z,4.47
2023-02-04T23:38:05.144Z,6.15
2023-02-04T23:40:35.525Z,5.82
2023-02-04T23:43:06.199Z,4.45
2023-02-04T23:45:34.865Z,4.85
2023-02-04T23:48:03.293Z,4.45
2023-02-04T23:50:31.481Z,5.05
2023-02-04T23:52:59.722Z,5.05
2023-02-04T23:55:29.396Z,5.30
2023-02-04T23:57:57.556Z,4.18
